Airport Name : Horta

Other Name : Horta

ICAO : LPHR

IATA : HOR

FAA :

Latitude : 38.519894

Longitude : -28.715872

Country : Portugal

Local Date and Time : 30 May 2024 06:15

 

TAF (Terminal Aerodrome Forecast)

 

METAR (METeorological Aerodrome Report)

LPHR 300600Z 32005KT 9999 FEW020 16/12 Q1013